Time;durP1;ratioP1;P1;durP2;ratioP2;P2;SDS_P1;SDS_P2;PMS_P1;PMS_P2;Temp;Humidity;BMP_temperature;BMP_pressure;BME280_temperature;BME280_humidity;BME280_pressure;Samples;Min_cycle;Max_cycle;Signal;HPM_P1;HPM_P2
2022/09/29 00:01:18;;;;;;;4.60;3.67;;;6.40;99.90;;;;;;4995268;28;20201;-67
2022/09/29 00:03:46;;;;;;;3.83;3.17;;;6.40;99.90;;;;;;4995174;28;20198;-68
2022/09/29 00:06:17;;;;;;;6.43;3.07;;;6.40;99.90;;;;;;4995100;28;20217;-68
2022/09/29 00:08:46;;;;;;;5.70;2.80;;;6.40;99.90;;;;;;4995102;28;20194;-68
2022/09/29 00:11:19;;;;;;;5.50;3.10;;;6.40;99.90;;;;;;4994998;28;20236;-68
2022/09/29 00:13:48;;;;;;;4.17;2.87;;;6.30;99.90;;;;;;4994984;28;20209;-67
2022/09/29 00:16:17;;;;;;;6.27;3.57;;;6.30;99.90;;;;;;4994933;28;20224;-66
2022/09/29 00:18:45;;;;;;;7.00;3.10;;;6.30;99.90;;;;;;4994933;28;20210;-67
2022/09/29 00:21:18;;;;;;;4.63;3.20;;;6.30;99.90;;;;;;4994987;28;20658;-67
2022/09/29 00:23:46;;;;;;;7.03;4.30;;;6.40;99.90;;;;;;4994899;28;20190;-67
2022/09/29 00:26:18;;;;;;;3.57;3.27;;;6.40;99.90;;;;;;4994766;28;20221;-69
2022/09/29 00:28:51;;;;;;;5.17;2.80;;;6.30;99.90;;;;;;4994790;28;20201;-68
2022/09/29 00:31:21;;;;;;;3.67;3.13;;;6.40;99.90;;;;;;4994711;28;20220;-65
2022/09/29 00:33:50;;;;;;;3.77;2.73;;;6.40;99.90;;;;;;4994193;28;20221;-66
2022/09/29 00:36:20;;;;;;;6.97;3.10;;;6.40;99.90;;;;;;4994523;28;20218;-68
2022/09/29 00:38:51;;;;;;;7.43;3.20;;;6.40;99.90;;;;;;4994447;28;20194;-68
2022/09/29 00:41:24;;;;;;;4.80;3.27;;;6.30;99.90;;;;;;4994558;28;20186;-68
2022/09/29 00:43:59;;;;;;;5.93;3.13;;;6.40;99.90;;;;;;4994573;28;20190;-67
2022/09/29 00:46:41;;;;;;;4.07;3.13;;;6.40;99.90;;;;;;4994394;28;20213;-69
2022/09/29 00:49:16;;;;;;;4.07;3.13;;;6.40;99.90;;;;;;4993458;28;20677;-68
2022/09/29 00:51:51;;;;;;;5.37;2.97;;;6.40;99.90;;;;;;4994783;28;20236;-68
2022/09/29 00:54:20;;;;;;;10.00;3.47;;;6.40;99.90;;;;;;4994193;28;20201;-67
2022/09/29 00:56:50;;;;;;;4.70;3.17;;;6.40;99.90;;;;;;4994170;28;20201;-68
2022/09/29 00:59:27;;;;;;;4.53;3.20;;;6.40;99.90;;;;;;4994126;28;20194;-69
2022/09/29 01:01:56;;;;;;;4.53;2.80;;;6.40;99.90;;;;;;4993743;28;20699;-67
2022/09/29 01:04:25;;;;;;;2.93;2.70;;;6.40;99.90;;;;;;4994059;28;20190;-68
2022/09/29 01:06:56;;;;;;;3.30;2.90;;;6.40;99.90;;;;;;4994092;28;20201;-69
2022/09/29 01:09:29;;;;;;;10.33;3.10;;;6.40;99.90;;;;;;4994048;28;20206;-70
2022/09/29 01:12:00;;;;;;;4.93;3.00;;;6.40;99.90;;;;;;4992990;28;20221;-69
2022/09/29 01:14:32;;;;;;;6.77;3.27;;;6.40;99.90;;;;;;4993813;28;20198;-68
2022/09/29 01:17:01;;;;;;;4.37;3.40;;;6.40;99.90;;;;;;4994021;28;20178;-70
2022/09/29 01:19:40;;;;;;;7.13;3.60;;;6.40;99.90;;;;;;4976471;28;20206;-67
2022/09/29 01:22:19;;;;;;;5.23;3.30;;;6.50;99.90;;;;;;4993739;28;20646;-68
2022/09/29 01:25:12;;;;;;;5.17;3.10;;;6.50;99.90;;;;;;4992133;28;20213;-67
2022/09/29 01:28:02;;;;;;;5.80;3.30;;;6.50;99.90;;;;;;4974263;28;20206;-68
2022/09/29 01:31:06;;;;;;;12.73;6.10;;;6.50;99.90;;;;;;4974219;28;20643;-68
2022/09/29 01:33:43;;;;;;;8.83;5.90;;;6.50;99.90;;;;;;4972260;28;20225;-68
2022/09/29 01:36:24;;;;;;;9.90;6.00;;;6.50;99.90;;;;;;4974112;28;20733;-69
2022/09/29 01:39:05;;;;;;;12.47;7.13;;;6.50;99.90;;;;;;4974045;28;20202;-67
2022/09/29 01:41:38;;;;;;;19.43;11.20;;;6.40;99.90;;;;;;4972971;28;20190;-66
2022/09/29 01:44:16;;;;;;;18.67;10.80;;;6.40;99.90;;;;;;4984735;28;20209;-68
2022/09/29 01:46:49;;;;;;;16.43;9.87;;;6.40;99.90;;;;;;4976104;28;20192;-68
2022/09/29 01:49:22;;;;;;;16.57;11.03;;;6.40;99.90;;;;;;4993265;28;20549;-68
2022/09/29 01:51:54;;;;;;;16.87;10.77;;;6.40;99.90;;;;;;4992953;28;20230;-67
2022/09/29 01:54:27;;;;;;;19.37;11.60;;;6.40;99.90;;;;;;4992536;28;20689;-67
2022/09/29 01:57:01;;;;;;;17.03;10.43;;;6.40;99.90;;;;;;4993307;28;20198;-68
2022/09/29 01:59:36;;;;;;;23.30;12.80;;;6.40;99.90;;;;;;4993227;28;20201;-67
2022/09/29 02:02:10;;;;;;;17.83;10.30;;;6.40;99.90;;;;;;4993168;28;20638;-67
2022/09/29 02:04:46;;;;;;;16.40;10.27;;;6.40;99.90;;;;;;4992329;28;20236;-65
2022/09/29 02:07:20;;;;;;;15.73;11.10;;;6.40;99.90;;;;;;4992190;28;20216;-68
2022/09/29 02:09:55;;;;;;;14.47;10.40;;;6.40;99.90;;;;;;4992679;28;20211;-68
2022/09/29 02:12:27;;;;;;;12.53;9.63;;;6.40;99.90;;;;;;4992977;28;20578;-67
2022/09/29 02:14:57;;;;;;;13.53;9.13;;;6.30;99.90;;;;;;4993059;28;20229;-68
2022/09/29 02:17:30;;;;;;;12.10;7.57;;;6.40;99.90;;;;;;4991981;28;20213;-68
2022/09/29 02:20:00;;;;;;;10.13;7.53;;;6.40;99.90;;;;;;4992887;28;20198;-68
2022/09/29 02:22:29;;;;;;;8.57;6.20;;;6.40;99.90;;;;;;4996359;28;20213;-68
2022/09/29 02:24:59;;;;;;;9.73;5.67;;;6.30;99.90;;;;;;4999371;28;20214;-68
2022/09/29 02:27:28;;;;;;;7.97;5.10;;;6.40;99.90;;;;;;4999517;28;20208;-68
2022/09/29 02:29:58;;;;;;;6.97;4.13;;;6.40;99.90;;;;;;4981738;28;20206;-68
2022/09/29 02:32:29;;;;;;;6.30;4.13;;;6.40;99.90;;;;;;4999226;28;20689;-66
2022/09/29 02:35:00;;;;;;;9.70;4.40;;;6.40;99.90;;;;;;4981981;28;20218;-69
2022/09/29 02:37:48;;;;;;;5.17;3.70;;;6.40;99.90;;;;;;4999200;28;20570;-66
2022/09/29 02:40:27;;;;;;;3.90;3.50;;;6.40;99.90;;;;;;4999314;28;20186;-69
2022/09/29 02:43:12;;;;;;;4.00;3.53;;;6.40;99.90;;;;;;4999436;28;20201;-69
2022/09/29 02:45:51;;;;;;;7.57;4.17;;;6.40;99.90;;;;;;4999307;28;20214;-69
2022/09/29 02:48:50;;;;;;;4.73;3.60;;;6.40;99.90;;;;;;4999316;28;20196;-68
2022/09/29 02:51:26;;;;;;;8.03;3.57;;;6.40;99.90;;;;;;4987576;28;20214;-68
2022/09/29 02:54:18;;;;;;;8.53;5.10;;;6.40;99.90;;;;;;4999456;28;20405;-67
2022/09/29 02:56:54;;;;;;;8.00;5.10;;;6.40;99.90;;;;;;4997510;28;20228;-66
2022/09/29 02:59:27;;;;;;;12.23;5.33;;;6.30;99.90;;;;;;4998474;28;20220;-66
2022/09/29 03:01:57;;;;;;;8.57;5.10;;;6.40;99.90;;;;;;4999205;28;20202;-64
2022/09/29 03:04:27;;;;;;;5.97;4.20;;;6.30;99.90;;;;;;4999084;28;20224;-66
2022/09/29 03:06:58;;;;;;;5.57;4.23;;;6.30;99.90;;;;;;4999090;28;20209;-66
2022/09/29 03:09:27;;;;;;;12.73;5.40;;;6.20;99.90;;;;;;4999110;28;20190;-65
2022/09/29 03:11:56;;;;;;;7.07;4.97;;;6.20;99.90;;;;;;4998676;28;20221;-65
2022/09/29 03:14:24;;;;;;;6.73;4.20;;;6.20;99.90;;;;;;4998901;28;20228;-65
2022/09/29 03:16:53;;;;;;;5.87;3.97;;;6.20;99.90;;;;;;4998978;28;20208;-65
2022/09/29 03:19:22;;;;;;;3.47;3.17;;;6.10;99.90;;;;;;4998999;28;20198;-66
2022/09/29 03:21:50;;;;;;;9.40;4.03;;;6.10;99.90;;;;;;4998900;28;20193;-66
2022/09/29 03:24:20;;;;;;;5.20;3.63;;;6.10;99.90;;;;;;4998106;28;20206;-65
2022/09/29 03:26:49;;;;;;;6.93;3.80;;;6.10;99.90;;;;;;4999142;28;20197;-65
2022/09/29 03:29:17;;;;;;;4.97;4.03;;;6.00;99.90;;;;;;4998832;28;20199;-65
2022/09/29 03:31:46;;;;;;;8.50;4.50;;;6.00;99.90;;;;;;4998824;28;20198;-65
2022/09/29 03:34:15;;;;;;;7.73;3.90;;;6.00;99.90;;;;;;4995938;28;20229;-66
2022/09/29 03:36:44;;;;;;;8.73;5.40;;;5.90;99.90;;;;;;4995678;28;20274;-65
2022/09/29 03:39:13;;;;;;;15.53;8.93;;;5.90;99.90;;;;;;4995932;28;20183;-66
2022/09/29 03:41:43;;;;;;;32.53;20.97;;;5.90;99.90;;;;;;4995733;28;20190;-66
2022/09/29 03:44:11;;;;;;;65.27;36.80;;;5.90;99.90;;;;;;4995840;28;20197;-65
2022/09/29 03:46:40;;;;;;;43.60;26.27;;;5.80;99.90;;;;;;4995524;28;20217;-66
2022/09/29 03:49:10;;;;;;;33.27;20.03;;;5.80;99.90;;;;;;4978001;28;20206;-66
2022/09/29 03:51:39;;;;;;;44.73;25.67;;;5.80;99.90;;;;;;4995472;28;20658;-66
2022/09/29 03:54:08;;;;;;;51.20;27.23;;;5.80;99.90;;;;;;4994877;28;20244;-66
2022/09/29 03:56:38;;;;;;;49.37;27.37;;;5.80;99.90;;;;;;4995302;28;20205;-64
2022/09/29 03:59:10;;;;;;;49.80;26.93;;;5.70;99.90;;;;;;4995401;28;20197;-65
2022/09/29 04:01:39;;;;;;;45.70;25.20;;;5.70;99.90;;;;;;4995317;28;20197;-65
2022/09/29 04:04:09;;;;;;;31.10;18.23;;;5.60;99.90;;;;;;4995264;28;20223;-66
2022/09/29 04:06:38;;;;;;;21.87;11.73;;;5.60;99.90;;;;;;4995364;28;20217;-66
2022/09/29 04:09:06;;;;;;;9.87;5.80;;;5.60;99.90;;;;;;4995162;28;20209;-65
2022/09/29 04:11:35;;;;;;;16.27;8.60;;;5.60;99.90;;;;;;4995159;28;20198;-65
2022/09/29 04:14:04;;;;;;;19.37;10.27;;;5.60;99.90;;;;;;4995068;28;20222;-64
2022/09/29 04:16:34;;;;;;;20.13;12.27;;;5.60;99.90;;;;;;4995008;28;20694;-65
2022/09/29 04:19:03;;;;;;;32.43;17.20;;;5.50;99.90;;;;;;4977812;28;20561;-65
2022/09/29 04:21:32;;;;;;;19.97;12.57;;;5.50;99.90;;;;;;4994933;28;20205;-66
2022/09/29 04:24:01;;;;;;;11.53;6.60;;;5.50;99.90;;;;;;4994803;28;20202;-64
2022/09/29 04:26:29;;;;;;;7.70;4.70;;;5.50;99.90;;;;;;4994737;28;20229;-65
2022/09/29 04:28:58;;;;;;;6.80;4.77;;;5.50;99.90;;;;;;4994791;28;20198;-66
2022/09/29 04:31:26;;;;;;;9.60;4.50;;;5.50;99.90;;;;;;4994773;28;20589;-65
2022/09/29 04:33:56;;;;;;;6.33;4.03;;;5.50;99.90;;;;;;4994657;28;20606;-65
2022/09/29 04:36:25;;;;;;;7.70;4.80;;;5.50;99.90;;;;;;4994667;28;20213;-66
2022/09/29 04:38:54;;;;;;;6.40;4.60;;;5.40;99.90;;;;;;4994634;28;20568;-65
2022/09/29 04:41:22;;;;;;;9.33;4.57;;;5.40;99.90;;;;;;4994758;28;20676;-65
2022/09/29 04:43:51;;;;;;;6.60;4.53;;;5.40;99.90;;;;;;4994551;28;20204;-66
2022/09/29 04:46:20;;;;;;;6.07;4.67;;;5.30;99.90;;;;;;4994407;28;20581;-65
2022/09/29 04:48:48;;;;;;;5.60;4.63;;;5.30;99.90;;;;;;4994406;28;20197;-66
2022/09/29 04:51:18;;;;;;;8.17;5.00;;;5.30;99.90;;;;;;4994530;28;20202;-66
2022/09/29 04:53:47;;;;;;;9.90;6.40;;;5.30;99.90;;;;;;4994287;28;20201;-66
2022/09/29 04:56:16;;;;;;;7.67;5.90;;;5.40;99.90;;;;;;4994405;28;20240;-66
2022/09/29 04:58:44;;;;;;;8.53;5.97;;;5.30;99.90;;;;;;4994260;28;20213;-66
2022/09/29 05:01:13;;;;;;;9.43;5.27;;;5.30;99.90;;;;;;4994203;28;20198;-65
2022/09/29 05:03:42;;;;;;;7.90;5.63;;;5.30;99.90;;;;;;4994316;28;20209;-66
2022/09/29 05:06:11;;;;;;;16.00;8.10;;;5.30;99.90;;;;;;4994111;28;20217;-67
2022/09/29 05:08:42;;;;;;;9.13;6.30;;;5.20;99.90;;;;;;4976854;28;20197;-66
2022/09/29 05:11:11;;;;;;;5.80;4.77;;;5.20;99.90;;;;;;4994326;28;20194;-66
2022/09/29 05:13:39;;;;;;;8.37;4.80;;;5.20;99.90;;;;;;4993889;28;20208;-66
2022/09/29 05:16:08;;;;;;;6.50;5.63;;;5.20;99.90;;;;;;4993780;28;20241;-66
2022/09/29 05:18:37;;;;;;;9.87;8.70;;;5.20;99.90;;;;;;4993397;28;20209;-65
2022/09/29 05:21:07;;;;;;;11.33;7.00;;;5.20;99.90;;;;;;4993854;28;20569;-65
2022/09/29 05:23:57;;;;;;;9.87;7.37;;;5.20;99.90;;;;;;4993843;28;20654;-65
2022/09/29 05:26:26;;;;;;;14.03;7.93;;;5.20;99.90;;;;;;4993645;28;20230;-65
2022/09/29 05:28:55;;;;;;;16.23;7.50;;;5.20;99.90;;;;;;4993009;28;20202;-64
2022/09/29 05:31:23;;;;;;;14.07;8.83;;;5.20;99.90;;;;;;4993652;28;20542;-64
2022/09/29 05:33:52;;;;;;;14.63;8.57;;;5.20;99.90;;;;;;4993696;28;20697;-65
2022/09/29 05:36:21;;;;;;;26.43;23.57;;;5.10;99.90;;;;;;4992725;28;20608;-66
2022/09/29 05:38:50;;;;;;;20.13;16.77;;;5.20;99.90;;;;;;4993459;28;20579;-65
2022/09/29 05:41:22;;;;;;;23.47;19.07;;;5.20;99.90;;;;;;4992760;28;20206;-66
2022/09/29 05:43:52;;;;;;;28.77;14.47;;;5.20;99.90;;;;;;4993422;28;20190;-65
2022/09/29 05:46:22;;;;;;;21.00;12.70;;;5.10;99.90;;;;;;4993292;28;20218;-64
2022/09/29 05:48:51;;;;;;;15.40;7.53;;;5.20;99.90;;;;;;4993311;28;20198;-65
2022/09/29 05:51:22;;;;;;;12.83;7.40;;;5.20;99.90;;;;;;4993322;28;20205;-65
2022/09/29 05:53:51;;;;;;;11.53;6.17;;;5.20;99.90;;;;;;4993286;28;20209;-66
2022/09/29 05:56:23;;;;;;;16.27;5.97;;;5.20;99.90;;;;;;4992657;28;20716;-66
2022/09/29 05:58:53;;;;;;;9.07;6.57;;;5.20;99.90;;;;;;4993388;28;20186;-66
2022/09/29 06:01:24;;;;;;;16.00;6.87;;;5.20;99.90;;;;;;4993253;28;20213;-66
2022/09/29 06:03:54;;;;;;;10.20;6.90;;;5.20;99.90;;;;;;4993294;28;20197;-66
2022/09/29 06:06:24;;;;;;;11.20;6.27;;;5.30;99.90;;;;;;4993058;28;20216;-65
2022/09/29 06:08:53;;;;;;;11.63;6.10;;;5.30;99.90;;;;;;4993153;28;20191;-66
2022/09/29 06:11:26;;;;;;;7.67;5.70;;;5.40;99.90;;;;;;4993099;28;20198;-66
2022/09/29 06:13:55;;;;;;;9.63;6.10;;;5.40;99.90;;;;;;4993127;28;20186;-66
2022/09/29 06:16:26;;;;;;;7.53;5.97;;;5.40;99.90;;;;;;4993043;28;20225;-66
2022/09/29 06:18:56;;;;;;;6.80;5.70;;;5.40;99.90;;;;;;4992614;28;20654;-65
2022/09/29 06:21:26;;;;;;;10.23;5.93;;;5.50;99.90;;;;;;4993004;28;20185;-65
2022/09/29 06:23:56;;;;;;;8.23;5.80;;;5.50;99.90;;;;;;4993072;28;20190;-64
2022/09/29 06:26:27;;;;;;;9.17;6.47;;;5.50;99.90;;;;;;4993174;28;20218;-65
2022/09/29 06:28:57;;;;;;;7.97;6.17;;;5.50;99.90;;;;;;4993099;28;20186;-66
2022/09/29 06:31:27;;;;;;;40.53;18.20;;;5.50;99.90;;;;;;4992974;28;20198;-65
2022/09/29 06:33:58;;;;;;;23.83;12.13;;;5.60;99.90;;;;;;4993352;28;20282;-65
2022/09/29 06:39:17;;;;;;;14.40;8.00;;;5.70;99.90;;;;;;4993123;28;20186;-66
2022/09/29 06:41:52;;;;;;;19.27;10.40;;;5.70;99.90;;;;;;4992975;28;20209;-67
2022/09/29 06:44:23;;;;;;;29.50;15.63;;;5.80;99.90;;;;;;4992741;28;20200;-65
2022/09/29 06:46:52;;;;;;;17.70;11.63;;;5.90;99.90;;;;;;4991965;28;20220;-66
2022/09/29 06:49:21;;;;;;;23.27;13.27;;;5.90;99.90;;;;;;4992849;28;20535;-66
2022/09/29 06:51:50;;;;;;;13.13;9.00;;;5.90;99.90;;;;;;4993040;28;20213;-65
2022/09/29 06:54:23;;;;;;;10.53;7.13;;;6.00;99.90;;;;;;4992825;28;20577;-66
2022/09/29 06:56:54;;;;;;;10.60;7.30;;;6.10;99.90;;;;;;4992752;28;20218;-65
2022/09/29 06:59:23;;;;;;;11.27;7.23;;;6.10;99.90;;;;;;4992785;28;20182;-65
2022/09/29 07:01:51;;;;;;;9.80;6.60;;;6.20;99.90;;;;;;4992679;28;20201;-64
2022/09/29 07:04:21;;;;;;;9.00;6.73;;;6.30;99.90;;;;;;4992567;28;20197;-65
2022/09/29 07:06:50;;;;;;;9.17;6.57;;;6.40;99.90;;;;;;4992549;28;20567;-64
2022/09/29 07:09:19;;;;;;;8.87;6.17;;;6.60;99.90;;;;;;4993941;28;20194;-65
2022/09/29 07:11:50;;;;;;;8.40;6.40;;;6.70;99.90;;;;;;4996173;28;20194;-67
2022/09/29 07:14:22;;;;;;;9.13;7.60;;;6.80;99.90;;;;;;4996129;28;20186;-64
2022/09/29 07:16:51;;;;;;;11.27;8.10;;;7.00;99.90;;;;;;4996146;28;20673;-65
2022/09/29 07:19:20;;;;;;;8.17;6.30;;;7.20;99.90;;;;;;4995692;28;20198;-64
2022/09/29 07:21:50;;;;;;;9.07;6.50;;;7.30;99.90;;;;;;4996328;28;20302;-65
2022/09/29 07:24:19;;;;;;;6.57;5.60;;;7.50;99.90;;;;;;4995771;28;20209;-64
2022/09/29 07:26:47;;;;;;;9.07;6.80;;;7.50;99.90;;;;;;4995966;28;20756;-65
2022/09/29 07:29:16;;;;;;;12.87;5.80;;;7.50;99.90;;;;;;4995962;28;20194;-65
2022/09/29 07:31:46;;;;;;;8.07;6.47;;;7.50;99.90;;;;;;4995967;28;20205;-66
2022/09/29 07:34:20;;;;;;;13.17;7.70;;;7.50;99.90;;;;;;4995860;28;20186;-65
2022/09/29 07:36:50;;;;;;;9.60;7.00;;;7.50;99.90;;;;;;4995489;28;20237;-65
2022/09/29 07:39:21;;;;;;;9.30;7.10;;;7.50;99.90;;;;;;4995756;28;20194;-65
2022/09/29 07:41:50;;;;;;;7.83;6.10;;;7.60;99.90;;;;;;4995692;28;20190;-64
2022/09/29 07:44:19;;;;;;;7.07;5.90;;;7.60;99.90;;;;;;4995618;28;20205;-66
2022/09/29 07:46:50;;;;;;;7.33;5.80;;;7.70;99.90;;;;;;4995684;28;20225;-66
2022/09/29 07:49:18;;;;;;;7.17;5.60;;;7.80;99.90;;;;;;4995587;28;20182;-65
2022/09/29 07:51:47;;;;;;;7.47;5.73;;;7.80;99.90;;;;;;4995492;28;20201;-66
2022/09/29 07:54:16;;;;;;;8.73;6.30;;;7.90;99.90;;;;;;4978149;28;20194;-65
2022/09/29 07:56:45;;;;;;;9.07;6.13;;;8.00;99.90;;;;;;4994623;28;20259;-65
2022/09/29 07:59:14;;;;;;;8.57;5.87;;;8.10;99.90;;;;;;4995460;28;20190;-64
2022/09/29 08:01:42;;;;;;;9.43;6.63;;;8.20;99.90;;;;;;4995332;28;20197;-65
2022/09/29 08:04:12;;;;;;;11.60;6.77;;;8.30;99.90;;;;;;4995180;28;20194;-65
2022/09/29 08:06:42;;;;;;;10.33;7.00;;;8.40;99.90;;;;;;4995226;28;20205;-65
2022/09/29 08:09:11;;;;;;;8.47;6.43;;;8.50;99.90;;;;;;4995211;28;20194;-65
2022/09/29 08:11:41;;;;;;;10.70;6.63;;;8.60;99.90;;;;;;4995155;28;20204;-66
2022/09/29 08:14:11;;;;;;;9.90;6.83;;;8.80;99.90;;;;;;4995280;28;20190;-65
2022/09/29 08:16:40;;;;;;;8.60;6.03;;;8.90;99.90;;;;;;4994737;28;20230;-64
2022/09/29 08:19:08;;;;;;;8.00;6.37;;;9.10;99.90;;;;;;4977423;28;20667;-65
2022/09/29 08:21:38;;;;;;;10.07;6.27;;;9.20;99.90;;;;;;4994781;28;20198;-66
2022/09/29 08:24:07;;;;;;;10.93;6.37;;;9.30;99.90;;;;;;4995027;28;20198;-65
2022/09/29 08:26:37;;;;;;;8.30;6.20;;;9.40;99.90;;;;;;4995000;28;20202;-66
2022/09/29 08:29:12;;;;;;;7.63;5.57;;;9.60;99.90;;;;;;4994819;28;20190;-65
2022/09/29 08:31:45;;;;;;;13.17;7.40;;;9.80;99.90;;;;;;4994995;28;20193;-66
2022/09/29 08:34:14;;;;;;;11.17;6.83;;;10.00;99.90;;;;;;4994644;28;20201;-65
2022/09/29 08:36:44;;;;;;;9.43;5.63;;;10.30;99.90;;;;;;4994440;28;20654;-65
2022/09/29 08:39:14;;;;;;;10.43;4.97;;;10.50;99.90;;;;;;4994824;28;20576;-65
2022/09/29 08:41:52;;;;;;;6.80;4.50;;;10.70;99.90;;;;;;4994622;28;20193;-65
2022/09/29 08:44:32;;;;;;;6.20;4.93;;;10.90;99.90;;;;;;4994500;28;20564;-66
2022/09/29 08:47:16;;;;;;;6.37;4.60;;;11.00;99.90;;;;;;4994603;28;20193;-66
2022/09/29 08:49:49;;;;;;;4.73;4.00;;;11.10;99.90;;;;;;4977262;28;20209;-65
2022/09/29 08:52:24;;;;;;;6.60;4.38;;;11.20;99.90;;;;;;4994519;28;20209;-65
2022/09/29 08:54:57;;;;;;;9.05;4.80;;;11.40;99.90;;;;;;4994299;28;20597;-65
2022/09/29 08:57:26;;;;;;;8.90;4.63;;;11.40;99.90;;;;;;4994198;28;20225;-65
2022/09/29 08:59:57;;;;;;;6.03;4.50;;;11.40;99.90;;;;;;4994465;28;20220;-65
2022/09/29 09:02:53;;;;;;;6.45;4.70;;;11.40;99.90;;;;;;4994340;28;20202;-65
2022/09/29 09:05:40;;;;;;;10.13;5.22;;;11.40;99.90;;;;;;4994281;28;20225;-65
2022/09/29 09:08:19;;;;;;;9.00;5.18;;;11.40;99.90;;;;;;4976777;28;20194;-65
2022/09/29 09:10:59;;;;;;;6.30;5.45;;;11.40;99.90;;;;;;4994028;28;20197;-64
2022/09/29 09:13:57;;;;;;;9.75;5.90;;;11.50;99.90;;;;;;4994066;28;20650;-65
2022/09/29 09:16:33;;;;;;;7.60;5.35;;;11.60;99.90;;;;;;4992153;28;20233;-66
2022/09/29 09:19:24;;;;;;;7.68;6.20;;;11.60;99.90;;;;;;4993883;28;20197;-67
2022/09/29 09:21:58;;;;;;;5.82;5.18;;;11.70;99.90;;;;;;4993899;28;20528;-66
2022/09/29 09:24:38;;;;;;;7.75;5.60;;;11.80;99.90;;;;;;4993816;28;20652;-65
2022/09/29 09:27:13;;;;;;;8.20;5.28;;;11.90;99.90;;;;;;4993736;28;20194;-66
2022/09/29 09:29:44;;;;;;;6.05;5.22;;;11.90;99.90;;;;;;4993271;28;20201;-65
2022/09/29 09:32:20;;;;;;;8.80;4.90;;;12.00;99.90;;;;;;4992865;28;20213;-65
2022/09/29 09:34:54;;;;;;;9.70;5.15;;;12.20;99.90;;;;;;4993870;28;20229;-66
2022/09/29 09:37:33;;;;;;;9.60;5.60;;;12.30;99.90;;;;;;4993412;28;20225;-65
2022/09/29 09:40:13;;;;;;;7.80;5.70;;;12.30;99.90;;;;;;4993554;28;20191;-66
2022/09/29 09:42:47;;;;;;;9.38;5.10;;;12.40;99.90;;;;;;4993525;28;20197;-65
2022/09/29 09:45:24;;;;;;;9.07;5.55;;;12.60;99.90;;;;;;4993393;28;20214;-66
2022/09/29 09:47:59;;;;;;;7.65;5.03;;;12.60;99.90;;;;;;4993500;28;20194;-66
2022/09/29 09:50:29;;;;;;;8.15;5.72;;;12.70;99.90;;;;;;4993433;28;20181;-66
2022/09/29 09:53:02;;;;;;;9.15;5.10;;;12.90;99.90;;;;;;4993352;28;20584;-66
2022/09/29 09:55:35;;;;;;;7.90;5.47;;;13.00;99.90;;;;;;4993254;28;20218;-66
2022/09/29 09:58:29;;;;;;;7.43;5.03;;;13.00;99.90;;;;;;4993496;28;20217;-66
2022/09/29 10:01:02;;;;;;;10.88;5.25;;;12.90;99.90;;;;;;4993747;28;20205;-65
2022/09/29 10:03:31;;;;;;;7.85;5.55;;;12.80;99.90;;;;;;4993303;28;20186;-66
2022/09/29 10:06:00;;;;;;;6.20;3.90;;;12.60;99.90;;;;;;4975903;28;20213;-64
2022/09/29 10:08:32;;;;;;;8.05;4.88;;;12.60;99.90;;;;;;4993099;28;20198;-65
2022/09/29 10:11:02;;;;;;;7.32;4.18;;;12.60;99.90;;;;;;4993103;28;20554;-65
2022/09/29 10:13:32;;;;;;;7.28;4.35;;;12.60;99.90;;;;;;4993079;28;20692;-65
2022/09/29 10:16:12;;;;;;;10.63;5.05;;;12.70;99.90;;;;;;4993021;28;20209;-65
2022/09/29 10:18:43;;;;;;;7.88;5.00;;;12.60;99.90;;;;;;4993020;28;20221;-66
2022/09/29 10:21:22;;;;;;;8.63;4.20;;;12.60;99.90;;;;;;4993012;28;20209;-65
2022/09/29 10:23:52;;;;;;;10.40;5.10;;;12.70;99.90;;;;;;4993037;28;20189;-67
2022/09/29 10:26:25;;;;;;;15.93;8.70;;;12.70;99.90;;;;;;4992850;28;20213;-66
2022/09/29 10:28:57;;;;;;;9.98;5.75;;;12.80;99.90;;;;;;4992760;28;20673;-65
2022/09/29 10:31:28;;;;;;;8.63;4.07;;;12.70;99.90;;;;;;4993003;28;20186;-65
2022/09/29 10:34:00;;;;;;;6.80;4.18;;;12.70;99.90;;;;;;4995711;28;20212;-65
2022/09/29 10:36:32;;;;;;;7.15;3.42;;;12.70;99.90;;;;;;4994255;28;20229;-64
2022/09/29 10:39:00;;;;;;;6.45;3.00;;;12.70;99.90;;;;;;5012233;28;20233;-66
2022/09/29 10:41:52;;;;;;;7.57;3.73;;;12.70;99.90;;;;;;5012479;28;20240;-66
2022/09/29 10:44:21;;;;;;;5.97;3.50;;;12.80;99.90;;;;;;4996292;28;20198;-65
2022/09/29 10:46:54;;;;;;;5.30;3.50;;;12.80;99.90;;;;;;4997991;28;20220;-64
2022/09/29 10:49:26;;;;;;;6.70;3.83;;;12.90;99.90;;;;;;4996729;28;20642;-65
2022/09/29 10:52:02;;;;;;;5.60;4.75;;;12.90;99.90;;;;;;4998551;28;20220;-65
2022/09/29 10:54:33;;;;;;;7.25;3.55;;;13.00;99.90;;;;;;4996760;28;20221;-65
2022/09/29 10:57:14;;;;;;;5.70;3.72;;;13.00;99.90;;;;;;4979444;28;20201;-65
2022/09/29 10:59:48;;;;;;;5.70;2.83;;;13.00;99.90;;;;;;4996459;28;20221;-65
2022/09/29 11:02:22;;;;;;;8.30;3.70;;;13.10;99.90;;;;;;4979366;28;20185;-65
2022/09/29 11:04:53;;;;;;;5.80;3.70;;;13.30;99.90;;;;;;4996426;28;20681;-65
2022/09/29 11:07:21;;;;;;;5.95;3.67;;;13.30;99.90;;;;;;4996423;28;20190;-65
2022/09/29 11:09:53;;;;;;;5.82;3.20;;;13.40;99.90;;;;;;4996325;28;20194;-66
2022/09/29 11:12:30;;;;;;;8.95;2.97;;;13.40;99.90;;;;;;4996376;28;20197;-65
2022/09/29 11:15:00;;;;;;;5.20;2.38;;;13.50;99.90;;;;;;4996205;28;20213;-65
2022/09/29 11:17:30;;;;;;;3.60;2.28;;;13.50;99.90;;;;;;4996641;28;20194;-66
2022/09/29 11:20:02;;;;;;;4.97;2.50;;;13.80;99.90;;;;;;4996089;28;20228;-65
2022/09/29 11:22:50;;;;;;;5.55;2.50;;;14.00;99.90;;;;;;4996191;28;20642;-66
2022/09/29 11:25:45;;;;;;;5.43;2.30;;;14.00;99.90;;;;;;4996089;28;20226;-65
2022/09/29 11:28:37;;;;;;;6.55;2.30;;;14.00;99.90;;;;;;4986807;28;20201;-66
2022/09/29 11:31:18;;;;;;;5.72;2.40;;;13.90;99.90;;;;;;4996150;28;20194;-66
2022/09/29 11:33:58;;;;;;;6.95;2.42;;;13.70;99.90;;;;;;4995908;28;20186;-66
2022/09/29 11:36:37;;;;;;;2.78;1.77;;;13.80;99.90;;;;;;4995870;28;20221;-66
2022/09/29 11:39:28;;;;;;;1.83;1.50;;;13.70;99.90;;;;;;4995756;28;20819;-66
2022/09/29 11:42:05;;;;;;;5.93;2.10;;;13.70;99.90;;;;;;4995724;28;20646;-66
2022/09/29 11:45:03;;;;;;;3.30;1.90;;;13.70;99.50;;;;;;4995591;28;20586;-65
2022/09/29 11:48:10;;;;;;;4.70;2.00;;;13.60;99.70;;;;;;4995620;28;20182;-64
2022/09/29 11:50:47;;;;;;;4.50;2.10;;;13.60;99.60;;;;;;4972424;28;20213;-66
2022/09/29 11:53:39;;;;;;;3.53;1.52;;;13.60;99.20;;;;;;4995705;28;20223;-65
2022/09/29 11:56:30;;;;;;;3.03;1.90;;;13.40;99.90;;;;;;4994527;28;20214;-64
2022/09/29 11:59:31;;;;;;;5.53;1.88;;;13.40;99.90;;;;;;4995375;28;20209;-64
2022/09/29 12:02:23;;;;;;;4.82;2.20;;;13.50;99.90;;;;;;4980951;28;20683;-65
2022/09/29 12:05:00;;;;;;;5.43;2.40;;;13.60;99.90;;;;;;4995567;28;20210;-65
2022/09/29 12:07:39;;;;;;;2.78;1.98;;;13.70;99.90;;;;;;4995368;28;20634;-65
2022/09/29 12:10:25;;;;;;;5.85;2.00;;;13.70;99.90;;;;;;4995401;28;20216;-65
2022/09/29 12:13:03;;;;;;;3.90;1.70;;;13.60;99.90;;;;;;4995387;28;20186;-66
2022/09/29 12:15:42;;;;;;;4.53;1.80;;;13.60;99.90;;;;;;4995210;28;20229;-65
2022/09/29 12:18:18;;;;;;;3.20;1.63;;;13.60;99.90;;;;;;4995166;28;20201;-66
2022/09/29 12:20:49;;;;;;;3.65;1.80;;;13.40;99.90;;;;;;4995259;28;20609;-65
2022/09/29 12:23:22;;;;;;;5.05;2.05;;;13.50;99.90;;;;;;4995017;28;20186;-66
2022/09/29 12:25:59;;;;;;;6.20;1.95;;;13.40;99.90;;;;;;4994947;28;20229;-65
2022/09/29 12:28:34;;;;;;;5.78;2.22;;;13.30;99.80;;;;;;4994886;28;20193;-65
2022/09/29 12:31:08;;;;;;;4.18;1.80;;;13.40;99.40;;;;;;4994387;28;20212;-65
2022/09/29 12:33:43;;;;;;;7.97;2.10;;;13.30;98.50;;;;;;4994779;28;20237;-65
2022/09/29 12:39:21;;;;;;;5.18;2.08;;;13.10;99.80;;;;;;4994612;28;20666;-65
2022/09/29 12:41:55;;;;;;;3.85;1.95;;;13.00;99.90;;;;;;4994682;28;20182;-66
2022/09/29 12:44:32;;;;;;;3.72;2.13;;;12.80;99.90;;;;;;4994570;28;20192;-66
2022/09/29 12:47:09;;;;;;;2.92;1.77;;;12.60;99.90;;;;;;4994601;28;20193;-65
2022/09/29 12:49:49;;;;;;;4.38;1.80;;;12.50;99.90;;;;;;4994501;28;20564;-65
2022/09/29 12:52:24;;;;;;;3.53;2.15;;;12.40;99.90;;;;;;4994983;28;20190;-65
2022/09/29 12:54:57;;;;;;;5.23;2.03;;;12.30;99.90;;;;;;4994333;28;20212;-65
2022/09/29 12:57:31;;;;;;;4.82;1.52;;;12.20;99.90;;;;;;4994431;28;20197;-66
2022/09/29 13:00:04;;;;;;;4.65;1.58;;;12.20;99.90;;;;;;4994281;28;20236;-65
2022/09/29 13:02:55;;;;;;;4.18;1.52;;;12.10;99.90;;;;;;4994289;28;20178;-66
2022/09/29 13:05:52;;;;;;;3.05;1.40;;;12.10;99.90;;;;;;4994027;28;20233;-65
2022/09/29 13:08:41;;;;;;;5.13;2.40;;;12.10;99.90;;;;;;4994180;28;20186;-66
2022/09/29 13:11:56;;;;;;;5.10;1.48;;;12.10;99.90;;;;;;4994045;28;20190;-67
2022/09/29 13:14:44;;;;;;;5.43;2.50;;;12.20;99.90;;;;;;4933973;29;20320;-65
2022/09/29 13:17:27;;;;;;;3.33;2.43;;;12.20;99.90;;;;;;4934062;29;20211;-66
2022/09/29 13:20:17;;;;;;;4.25;2.58;;;12.20;99.90;;;;;;4975414;28;20589;-66
2022/09/29 13:23:25;;;;;;;6.45;3.70;;;12.10;99.90;;;;;;4993851;28;20557;-67
2022/09/29 13:26:05;;;;;;;4.55;1.73;;;12.20;99.90;;;;;;4993747;28;20214;-65
2022/09/29 13:28:40;;;;;;;1.63;1.40;;;12.30;99.90;;;;;;4993794;28;20190;-65
2022/09/29 13:31:13;;;;;;;6.28;3.60;;;12.30;99.90;;;;;;4976565;28;20193;-66